sensor_id;sensor_type;location;lat;lon;timestamp;P1;durP1;ratioP1;P2;durP2;ratioP2
75506;SDS011;64086;43.220;27.878;2023-03-23T00:00:50;9.38;;;5.45;;
75506;SDS011;64086;43.220;27.878;2023-03-23T00:03:15;8.50;;;5.28;;
75506;SDS011;64086;43.220;27.878;2023-03-23T00:05:40;9.75;;;6.63;;
75506;SDS011;64086;43.220;27.878;2023-03-23T00:08:06;11.90;;;7.40;;
75506;SDS011;64086;43.220;27.878;2023-03-23T00:10:34;9.05;;;7.45;;
75506;SDS011;64086;43.220;27.878;2023-03-23T00:13:00;9.77;;;6.85;;
75506;SDS011;64086;43.220;27.878;2023-03-23T00:15:27;9.50;;;7.25;;
75506;SDS011;64086;43.220;27.878;2023-03-23T00:17:58;10.18;;;7.80;;
75506;SDS011;64086;43.220;27.878;2023-03-23T00:20:30;12.00;;;8.13;;
75506;SDS011;64086;43.220;27.878;2023-03-23T00:23:05;11.90;;;7.90;;
75506;SDS011;64086;43.220;27.878;2023-03-23T00:25:31;10.15;;;7.32;;
75506;SDS011;64086;43.220;27.878;2023-03-23T00:27:57;10.55;;;7.78;;
75506;SDS011;64086;43.220;27.878;2023-03-23T00:30:22;10.98;;;7.72;;
75506;SDS011;64086;43.220;27.878;2023-03-23T00:32:48;10.80;;;7.82;;
75506;SDS011;64086;43.220;27.878;2023-03-23T00:35:15;9.82;;;7.25;;
75506;SDS011;64086;43.220;27.878;2023-03-23T00:37:42;10.75;;;7.82;;
75506;SDS011;64086;43.220;27.878;2023-03-23T00:40:09;9.50;;;7.13;;
75506;SDS011;64086;43.220;27.878;2023-03-23T00:42:35;9.95;;;6.75;;
75506;SDS011;64086;43.220;27.878;2023-03-23T00:45:03;11.55;;;6.85;;
75506;SDS011;64086;43.220;27.878;2023-03-23T00:47:35;10.10;;;6.95;;
75506;SDS011;64086;43.220;27.878;2023-03-23T00:50:02;8.73;;;6.22;;
75506;SDS011;64086;43.220;27.878;2023-03-23T00:52:30;8.32;;;6.20;;
75506;SDS011;64086;43.220;27.878;2023-03-23T00:54:55;9.00;;;5.72;;
75506;SDS011;64086;43.220;27.878;2023-03-23T00:57:21;8.93;;;6.45;;
75506;SDS011;64086;43.220;27.878;2023-03-23T00:59:49;9.25;;;6.43;;
75506;SDS011;64086;43.220;27.878;2023-03-23T01:02:17;9.55;;;6.25;;
75506;SDS011;64086;43.220;27.878;2023-03-23T01:04:43;9.23;;;5.90;;
75506;SDS011;64086;43.220;27.878;2023-03-23T01:07:10;9.00;;;6.03;;
75506;SDS011;64086;43.220;27.878;2023-03-23T01:09:38;10.10;;;6.35;;
75506;SDS011;64086;43.220;27.878;2023-03-23T01:12:05;9.30;;;6.28;;
75506;SDS011;64086;43.220;27.878;2023-03-23T01:14:30;10.50;;;6.60;;
75506;SDS011;64086;43.220;27.878;2023-03-23T01:16:56;9.88;;;6.63;;
75506;SDS011;64086;43.220;27.878;2023-03-23T01:19:22;11.48;;;6.82;;
75506;SDS011;64086;43.220;27.878;2023-03-23T01:21:47;11.80;;;7.72;;
75506;SDS011;64086;43.220;27.878;2023-03-23T01:24:13;12.02;;;7.90;;
75506;SDS011;64086;43.220;27.878;2023-03-23T01:26:38;10.80;;;7.68;;
75506;SDS011;64086;43.220;27.878;2023-03-23T01:29:04;11.48;;;8.30;;
75506;SDS011;64086;43.220;27.878;2023-03-23T01:31:29;13.32;;;8.00;;
75506;SDS011;64086;43.220;27.878;2023-03-23T01:33:55;12.35;;;8.43;;
75506;SDS011;64086;43.220;27.878;2023-03-23T01:36:25;13.13;;;8.80;;
75506;SDS011;64086;43.220;27.878;2023-03-23T01:38:53;12.82;;;8.13;;
75506;SDS011;64086;43.220;27.878;2023-03-23T01:41:20;14.05;;;8.88;;
75506;SDS011;64086;43.220;27.878;2023-03-23T01:46:30;14.48;;;9.52;;
75506;SDS011;64086;43.220;27.878;2023-03-23T01:48:58;14.40;;;9.43;;
75506;SDS011;64086;43.220;27.878;2023-03-23T01:51:37;13.63;;;8.88;;
75506;SDS011;64086;43.220;27.878;2023-03-23T01:54:12;14.93;;;9.07;;
75506;SDS011;64086;43.220;27.878;2023-03-23T01:56:43;15.73;;;9.43;;
75506;SDS011;64086;43.220;27.878;2023-03-23T01:59:11;15.82;;;9.27;;
75506;SDS011;64086;43.220;27.878;2023-03-23T02:01:38;15.15;;;9.40;;
75506;SDS011;64086;43.220;27.878;2023-03-23T02:04:08;15.55;;;9.88;;
75506;SDS011;64086;43.220;27.878;2023-03-23T02:06:34;17.40;;;9.85;;
75506;SDS011;64086;43.220;27.878;2023-03-23T02:08:59;15.35;;;9.90;;
75506;SDS011;64086;43.220;27.878;2023-03-23T02:11:25;16.35;;;9.63;;
75506;SDS011;64086;43.220;27.878;2023-03-23T02:13:50;14.80;;;10.40;;
75506;SDS011;64086;43.220;27.878;2023-03-23T02:16:39;15.65;;;8.88;;
75506;SDS011;64086;43.220;27.878;2023-03-23T02:33:35;16.27;;;9.63;;
75506;SDS011;64086;43.220;27.878;2023-03-23T02:38:46;14.88;;;9.38;;
75506;SDS011;64086;43.220;27.878;2023-03-23T02:41:16;14.27;;;8.10;;
75506;SDS011;64086;43.220;27.878;2023-03-23T02:43:45;15.57;;;8.10;;
75506;SDS011;64086;43.220;27.878;2023-03-23T02:46:11;16.42;;;9.45;;
75506;SDS011;64086;43.220;27.878;2023-03-23T02:48:37;15.98;;;9.55;;
75506;SDS011;64086;43.220;27.878;2023-03-23T02:51:04;17.15;;;10.25;;
75506;SDS011;64086;43.220;27.878;2023-03-23T02:53:30;19.02;;;10.88;;
75506;SDS011;64086;43.220;27.878;2023-03-23T02:55:58;16.48;;;9.93;;
75506;SDS011;64086;43.220;27.878;2023-03-23T02:58:27;17.00;;;9.68;;
75506;SDS011;64086;43.220;27.878;2023-03-23T03:00:54;17.90;;;10.10;;
75506;SDS011;64086;43.220;27.878;2023-03-23T03:03:22;18.98;;;10.93;;
75506;SDS011;64086;43.220;27.878;2023-03-23T03:08:37;16.80;;;9.13;;
75506;SDS011;64086;43.220;27.878;2023-03-23T03:11:11;17.33;;;9.20;;
75506;SDS011;64086;43.220;27.878;2023-03-23T03:19:02;20.08;;;10.23;;
75506;SDS011;64086;43.220;27.878;2023-03-23T03:21:32;18.67;;;9.73;;
75506;SDS011;64086;43.220;27.878;2023-03-23T03:24:00;19.00;;;10.07;;
75506;SDS011;64086;43.220;27.878;2023-03-23T03:26:27;20.83;;;10.38;;
75506;SDS011;64086;43.220;27.878;2023-03-23T03:28:56;17.55;;;10.30;;
75506;SDS011;64086;43.220;27.878;2023-03-23T03:31:22;18.50;;;10.23;;
75506;SDS011;64086;43.220;27.878;2023-03-23T03:33:50;18.23;;;10.32;;
75506;SDS011;64086;43.220;27.878;2023-03-23T03:36:20;19.30;;;11.15;;
75506;SDS011;64086;43.220;27.878;2023-03-23T03:38:48;20.42;;;11.27;;
75506;SDS011;64086;43.220;27.878;2023-03-23T03:41:15;18.73;;;10.85;;
75506;SDS011;64086;43.220;27.878;2023-03-23T03:43:42;17.80;;;10.68;;
75506;SDS011;64086;43.220;27.878;2023-03-23T03:46:07;17.30;;;10.32;;
75506;SDS011;64086;43.220;27.878;2023-03-23T03:48:33;17.00;;;10.25;;
75506;SDS011;64086;43.220;27.878;2023-03-23T03:50:58;16.58;;;9.95;;
75506;SDS011;64086;43.220;27.878;2023-03-23T03:53:25;16.88;;;9.65;;
75506;SDS011;64086;43.220;27.878;2023-03-23T03:55:51;17.30;;;10.07;;
75506;SDS011;64086;43.220;27.878;2023-03-23T03:58:20;16.67;;;9.52;;
75506;SDS011;64086;43.220;27.878;2023-03-23T04:00:46;17.35;;;10.02;;
75506;SDS011;64086;43.220;27.878;2023-03-23T04:03:15;17.10;;;10.65;;
75506;SDS011;64086;43.220;27.878;2023-03-23T04:05:41;17.02;;;11.00;;
75506;SDS011;64086;43.220;27.878;2023-03-23T04:08:07;17.48;;;10.65;;
75506;SDS011;64086;43.220;27.878;2023-03-23T04:10:32;19.60;;;12.20;;
75506;SDS011;64086;43.220;27.878;2023-03-23T04:12:58;19.20;;;11.98;;
75506;SDS011;64086;43.220;27.878;2023-03-23T04:15:24;20.98;;;12.63;;
75506;SDS011;64086;43.220;27.878;2023-03-23T04:17:50;19.42;;;12.02;;
75506;SDS011;64086;43.220;27.878;2023-03-23T04:20:15;17.45;;;11.75;;
75506;SDS011;64086;43.220;27.878;2023-03-23T04:22:43;20.08;;;12.10;;
75506;SDS011;64086;43.220;27.878;2023-03-23T04:25:10;16.70;;;11.02;;
75506;SDS011;64086;43.220;27.878;2023-03-23T04:27:37;16.60;;;11.20;;
75506;SDS011;64086;43.220;27.878;2023-03-23T04:30:04;18.73;;;11.35;;
75506;SDS011;64086;43.220;27.878;2023-03-23T04:32:31;18.10;;;10.52;;
75506;SDS011;64086;43.220;27.878;2023-03-23T04:34:57;18.00;;;11.55;;
75506;SDS011;64086;43.220;27.878;2023-03-23T04:37:24;15.77;;;9.90;;
75506;SDS011;64086;43.220;27.878;2023-03-23T04:39:53;16.05;;;10.18;;
75506;SDS011;64086;43.220;27.878;2023-03-23T04:42:29;17.40;;;10.70;;
75506;SDS011;64086;43.220;27.878;2023-03-23T04:44:56;15.63;;;10.15;;
75506;SDS011;64086;43.220;27.878;2023-03-23T04:47:22;16.15;;;10.30;;
75506;SDS011;64086;43.220;27.878;2023-03-23T04:49:48;17.10;;;10.52;;
75506;SDS011;64086;43.220;27.878;2023-03-23T04:52:13;19.38;;;11.43;;
75506;SDS011;64086;43.220;27.878;2023-03-23T04:54:39;20.50;;;12.40;;
75506;SDS011;64086;43.220;27.878;2023-03-23T04:57:05;17.33;;;10.95;;
75506;SDS011;64086;43.220;27.878;2023-03-23T04:59:30;17.08;;;10.45;;
75506;SDS011;64086;43.220;27.878;2023-03-23T05:01:56;16.30;;;10.02;;
75506;SDS011;64086;43.220;27.878;2023-03-23T05:04:22;15.98;;;10.00;;
75506;SDS011;64086;43.220;27.878;2023-03-23T05:06:50;14.18;;;9.57;;
75506;SDS011;64086;43.220;27.878;2023-03-23T05:09:18;13.38;;;9.40;;
75506;SDS011;64086;43.220;27.878;2023-03-23T05:11:44;14.40;;;9.43;;
75506;SDS011;64086;43.220;27.878;2023-03-23T05:14:10;12.75;;;8.65;;
75506;SDS011;64086;43.220;27.878;2023-03-23T05:16:36;14.07;;;8.80;;
75506;SDS011;64086;43.220;27.878;2023-03-23T05:19:03;13.77;;;9.23;;
75506;SDS011;64086;43.220;27.878;2023-03-23T05:21:29;12.50;;;9.07;;
75506;SDS011;64086;43.220;27.878;2023-03-23T05:23:55;11.80;;;8.70;;
75506;SDS011;64086;43.220;27.878;2023-03-23T05:26:21;11.15;;;8.02;;
75506;SDS011;64086;43.220;27.878;2023-03-23T05:28:48;11.43;;;7.50;;
75506;SDS011;64086;43.220;27.878;2023-03-23T05:31:17;13.50;;;9.73;;
75506;SDS011;64086;43.220;27.878;2023-03-23T05:33:43;11.30;;;7.78;;
75506;SDS011;64086;43.220;27.878;2023-03-23T05:36:09;12.02;;;8.35;;
75506;SDS011;64086;43.220;27.878;2023-03-23T05:38:35;12.27;;;8.18;;
75506;SDS011;64086;43.220;27.878;2023-03-23T05:41:04;12.82;;;8.05;;
75506;SDS011;64086;43.220;27.878;2023-03-23T05:43:29;11.60;;;8.65;;
75506;SDS011;64086;43.220;27.878;2023-03-23T05:45:55;12.95;;;9.15;;
75506;SDS011;64086;43.220;27.878;2023-03-23T05:48:20;12.15;;;9.52;;
75506;SDS011;64086;43.220;27.878;2023-03-23T05:50:46;14.73;;;10.05;;
75506;SDS011;64086;43.220;27.878;2023-03-23T05:53:12;13.20;;;9.95;;
75506;SDS011;64086;43.220;27.878;2023-03-23T05:55:38;11.95;;;8.63;;
75506;SDS011;64086;43.220;27.878;2023-03-23T05:58:03;12.27;;;8.95;;
75506;SDS011;64086;43.220;27.878;2023-03-23T06:00:28;13.88;;;10.07;;
75506;SDS011;64086;43.220;27.878;2023-03-23T06:02:55;15.00;;;10.00;;
75506;SDS011;64086;43.220;27.878;2023-03-23T06:05:22;14.40;;;10.48;;
75506;SDS011;64086;43.220;27.878;2023-03-23T06:07:48;14.60;;;10.90;;
75506;SDS011;64086;43.220;27.878;2023-03-23T06:10:14;15.15;;;10.63;;
75506;SDS011;64086;43.220;27.878;2023-03-23T06:12:40;15.57;;;10.93;;
75506;SDS011;64086;43.220;27.878;2023-03-23T06:15:06;15.35;;;10.80;;
75506;SDS011;64086;43.220;27.878;2023-03-23T06:17:32;13.82;;;9.55;;
75506;SDS011;64086;43.220;27.878;2023-03-23T06:19:59;14.98;;;10.32;;
75506;SDS011;64086;43.220;27.878;2023-03-23T06:22:24;14.02;;;10.27;;
75506;SDS011;64086;43.220;27.878;2023-03-23T06:24:50;12.75;;;9.73;;
75506;SDS011;64086;43.220;27.878;2023-03-23T06:27:15;12.98;;;9.07;;
75506;SDS011;64086;43.220;27.878;2023-03-23T06:29:42;12.80;;;9.07;;
75506;SDS011;64086;43.220;27.878;2023-03-23T06:32:11;10.68;;;8.55;;
75506;SDS011;64086;43.220;27.878;2023-03-23T06:34:38;11.77;;;9.10;;
75506;SDS011;64086;43.220;27.878;2023-03-23T06:37:08;10.25;;;8.20;;
75506;SDS011;64086;43.220;27.878;2023-03-23T06:39:34;9.38;;;7.80;;
75506;SDS011;64086;43.220;27.878;2023-03-23T06:42:01;8.63;;;6.85;;
75506;SDS011;64086;43.220;27.878;2023-03-23T06:44:26;10.93;;;7.05;;
75506;SDS011;64086;43.220;27.878;2023-03-23T06:46:52;9.45;;;7.15;;
75506;SDS011;64086;43.220;27.878;2023-03-23T06:49:17;8.48;;;6.68;;
75506;SDS011;64086;43.220;27.878;2023-03-23T06:51:43;8.43;;;6.38;;
75506;SDS011;64086;43.220;27.878;2023-03-23T06:54:08;8.52;;;6.72;;
75506;SDS011;64086;43.220;27.878;2023-03-23T06:56:34;8.73;;;6.82;;
75506;SDS011;64086;43.220;27.878;2023-03-23T06:59:00;8.60;;;6.45;;
75506;SDS011;64086;43.220;27.878;2023-03-23T07:01:25;9.73;;;7.75;;
75506;SDS011;64086;43.220;27.878;2023-03-23T07:03:53;8.95;;;6.85;;
75506;SDS011;64086;43.220;27.878;2023-03-23T07:06:18;8.13;;;6.65;;
75506;SDS011;64086;43.220;27.878;2023-03-23T07:08:44;8.15;;;6.30;;
75506;SDS011;64086;43.220;27.878;2023-03-23T07:11:10;8.93;;;6.95;;
75506;SDS011;64086;43.220;27.878;2023-03-23T07:13:36;8.20;;;6.75;;
75506;SDS011;64086;43.220;27.878;2023-03-23T07:16:03;10.40;;;7.78;;
75506;SDS011;64086;43.220;27.878;2023-03-23T07:18:30;11.70;;;8.45;;
75506;SDS011;64086;43.220;27.878;2023-03-23T07:20:56;9.68;;;8.18;;
75506;SDS011;64086;43.220;27.878;2023-03-23T07:23:21;10.95;;;8.98;;
75506;SDS011;64086;43.220;27.878;2023-03-23T07:25:47;9.63;;;7.60;;
75506;SDS011;64086;43.220;27.878;2023-03-23T07:28:13;10.30;;;8.32;;
75506;SDS011;64086;43.220;27.878;2023-03-23T07:30:39;11.52;;;8.52;;
75506;SDS011;64086;43.220;27.878;2023-03-23T07:33:05;11.95;;;9.50;;
75506;SDS011;64086;43.220;27.878;2023-03-23T07:35:32;9.30;;;7.70;;
75506;SDS011;64086;43.220;27.878;2023-03-23T07:37:57;11.43;;;7.65;;
75506;SDS011;64086;43.220;27.878;2023-03-23T07:40:23;9.73;;;7.90;;
75506;SDS011;64086;43.220;27.878;2023-03-23T07:42:53;10.18;;;7.53;;
75506;SDS011;64086;43.220;27.878;2023-03-23T07:45:20;8.07;;;6.88;;
75506;SDS011;64086;43.220;27.878;2023-03-23T07:47:46;6.85;;;6.15;;
75506;SDS011;64086;43.220;27.878;2023-03-23T07:50:12;9.60;;;6.70;;
75506;SDS011;64086;43.220;27.878;2023-03-23T07:52:38;8.30;;;6.63;;
75506;SDS011;64086;43.220;27.878;2023-03-23T07:55:05;8.23;;;6.43;;
75506;SDS011;64086;43.220;27.878;2023-03-23T07:57:31;8.82;;;6.97;;
75506;SDS011;64086;43.220;27.878;2023-03-23T07:59:57;7.32;;;6.30;;
75506;SDS011;64086;43.220;27.878;2023-03-23T08:02:23;10.60;;;7.47;;
75506;SDS011;64086;43.220;27.878;2023-03-23T08:04:49;9.85;;;7.45;;
75506;SDS011;64086;43.220;27.878;2023-03-23T08:07:16;9.65;;;7.93;;
75506;SDS011;64086;43.220;27.878;2023-03-23T08:09:42;10.13;;;7.35;;
75506;SDS011;64086;43.220;27.878;2023-03-23T08:12:09;9.85;;;8.02;;
75506;SDS011;64086;43.220;27.878;2023-03-23T08:14:35;10.13;;;8.50;;
75506;SDS011;64086;43.220;27.878;2023-03-23T08:17:00;10.60;;;9.05;;
75506;SDS011;64086;43.220;27.878;2023-03-23T08:19:26;10.27;;;8.52;;
75506;SDS011;64086;43.220;27.878;2023-03-23T08:21:51;11.55;;;8.90;;
75506;SDS011;64086;43.220;27.878;2023-03-23T08:24:17;12.23;;;9.90;;
75506;SDS011;64086;43.220;27.878;2023-03-23T08:26:43;12.68;;;9.73;;
75506;SDS011;64086;43.220;27.878;2023-03-23T08:29:09;10.25;;;8.05;;
75506;SDS011;64086;43.220;27.878;2023-03-23T08:31:34;10.73;;;8.13;;
75506;SDS011;64086;43.220;27.878;2023-03-23T08:34:01;12.68;;;9.68;;
75506;SDS011;64086;43.220;27.878;2023-03-23T08:36:29;11.20;;;9.63;;
75506;SDS011;64086;43.220;27.878;2023-03-23T08:38:57;11.75;;;9.50;;
75506;SDS011;64086;43.220;27.878;2023-03-23T08:41:23;10.73;;;9.32;;
75506;SDS011;64086;43.220;27.878;2023-03-23T08:43:49;11.82;;;9.70;;
75506;SDS011;64086;43.220;27.878;2023-03-23T08:46:15;12.48;;;10.02;;
75506;SDS011;64086;43.220;27.878;2023-03-23T08:48:41;13.80;;;12.02;;
75506;SDS011;64086;43.220;27.878;2023-03-23T08:51:08;14.45;;;11.48;;
75506;SDS011;64086;43.220;27.878;2023-03-23T08:53:35;14.50;;;11.88;;
75506;SDS011;64086;43.220;27.878;2023-03-23T08:56:05;13.82;;;11.23;;
75506;SDS011;64086;43.220;27.878;2023-03-23T08:58:33;13.48;;;10.70;;
75506;SDS011;64086;43.220;27.878;2023-03-23T09:01:02;14.20;;;9.98;;
75506;SDS011;64086;43.220;27.878;2023-03-23T09:03:28;12.85;;;10.43;;
75506;SDS011;64086;43.220;27.878;2023-03-23T09:05:58;11.13;;;9.55;;
75506;SDS011;64086;43.220;27.878;2023-03-23T09:08:27;11.75;;;10.38;;
75506;SDS011;64086;43.220;27.878;2023-03-23T09:10:59;14.25;;;10.55;;
75506;SDS011;64086;43.220;27.878;2023-03-23T09:13:25;13.00;;;10.68;;
75506;SDS011;64086;43.220;27.878;2023-03-23T09:15:51;12.85;;;10.10;;
75506;SDS011;64086;43.220;27.878;2023-03-23T09:18:17;12.07;;;9.85;;
75506;SDS011;64086;43.220;27.878;2023-03-23T09:20:43;11.95;;;9.85;;
75506;SDS011;64086;43.220;27.878;2023-03-23T09:23:09;12.23;;;9.43;;
75506;SDS011;64086;43.220;27.878;2023-03-23T09:25:34;12.82;;;10.07;;
75506;SDS011;64086;43.220;27.878;2023-03-23T09:28:00;13.35;;;10.52;;
75506;SDS011;64086;43.220;27.878;2023-03-23T09:30:27;12.55;;;9.98;;
75506;SDS011;64086;43.220;27.878;2023-03-23T09:32:54;14.85;;;11.05;;
75506;SDS011;64086;43.220;27.878;2023-03-23T09:35:20;13.20;;;10.57;;
75506;SDS011;64086;43.220;27.878;2023-03-23T09:37:50;17.08;;;11.15;;
75506;SDS011;64086;43.220;27.878;2023-03-23T09:40:19;16.08;;;11.27;;
75506;SDS011;64086;43.220;27.878;2023-03-23T09:42:56;14.40;;;10.63;;
75506;SDS011;64086;43.220;27.878;2023-03-23T09:45:25;13.85;;;10.07;;
75506;SDS011;64086;43.220;27.878;2023-03-23T09:48:12;10.85;;;8.45;;
75506;SDS011;64086;43.220;27.878;2023-03-23T09:53:39;11.68;;;8.10;;
75506;SDS011;64086;43.220;27.878;2023-03-23T09:56:11;10.15;;;7.97;;
75506;SDS011;64086;43.220;27.878;2023-03-23T10:01:47;19.13;;;13.45;;
75506;SDS011;64086;43.220;27.878;2023-03-23T10:07:09;15.80;;;13.13;;
75506;SDS011;64086;43.220;27.878;2023-03-23T10:09:37;17.65;;;12.60;;
75506;SDS011;64086;43.220;27.878;2023-03-23T10:15:09;16.92;;;12.77;;
75506;SDS011;64086;43.220;27.878;2023-03-23T10:25:56;16.80;;;12.68;;
75506;SDS011;64086;43.220;27.878;2023-03-23T10:28:35;16.00;;;12.82;;
75506;SDS011;64086;43.220;27.878;2023-03-23T10:31:02;15.07;;;12.05;;
75506;SDS011;64086;43.220;27.878;2023-03-23T10:36:23;15.75;;;12.38;;
75506;SDS011;64086;43.220;27.878;2023-03-23T10:41:28;16.48;;;11.68;;
75506;SDS011;64086;43.220;27.878;2023-03-23T10:43:55;16.42;;;11.95;;
75506;SDS011;64086;43.220;27.878;2023-03-23T10:48:47;16.45;;;12.60;;
75506;SDS011;64086;43.220;27.878;2023-03-23T10:51:15;15.75;;;12.73;;
75506;SDS011;64086;43.220;27.878;2023-03-23T10:53:43;16.02;;;11.75;;
75506;SDS011;64086;43.220;27.878;2023-03-23T10:56:23;16.20;;;12.73;;
75506;SDS011;64086;43.220;27.878;2023-03-23T10:58:54;14.40;;;12.50;;
75506;SDS011;64086;43.220;27.878;2023-03-23T11:01:30;15.20;;;12.50;;
75506;SDS011;64086;43.220;27.878;2023-03-23T11:03:58;18.33;;;13.13;;
75506;SDS011;64086;43.220;27.878;2023-03-23T11:06:29;14.20;;;11.93;;
75506;SDS011;64086;43.220;27.878;2023-03-23T11:08:58;14.95;;;11.73;;
75506;SDS011;64086;43.220;27.878;2023-03-23T11:11:27;13.40;;;11.32;;
75506;SDS011;64086;43.220;27.878;2023-03-23T11:16:42;14.75;;;11.52;;
75506;SDS011;64086;43.220;27.878;2023-03-23T11:19:21;14.40;;;12.23;;
75506;SDS011;64086;43.220;27.878;2023-03-23T11:21:53;15.55;;;12.48;;
75506;SDS011;64086;43.220;27.878;2023-03-23T11:24:21;14.68;;;11.80;;
75506;SDS011;64086;43.220;27.878;2023-03-23T11:26:51;17.25;;;12.93;;
75506;SDS011;64086;43.220;27.878;2023-03-23T11:29:19;17.40;;;12.90;;
75506;SDS011;64086;43.220;27.878;2023-03-23T11:31:48;16.95;;;14.07;;
75506;SDS011;64086;43.220;27.878;2023-03-23T11:34:22;17.15;;;13.82;;
75506;SDS011;64086;43.220;27.878;2023-03-23T11:37:01;15.52;;;13.65;;
75506;SDS011;64086;43.220;27.878;2023-03-23T11:39:33;21.70;;;16.77;;
75506;SDS011;64086;43.220;27.878;2023-03-23T11:42:01;15.20;;;13.00;;
75506;SDS011;64086;43.220;27.878;2023-03-23T11:44:32;16.63;;;13.90;;
75506;SDS011;64086;43.220;27.878;2023-03-23T11:47:13;14.75;;;12.68;;
75506;SDS011;64086;43.220;27.878;2023-03-23T11:52:40;16.80;;;14.00;;
75506;SDS011;64086;43.220;27.878;2023-03-23T11:55:17;20.85;;;14.15;;
75506;SDS011;64086;43.220;27.878;2023-03-23T11:57:45;16.80;;;12.73;;
75506;SDS011;64086;43.220;27.878;2023-03-23T12:00:13;19.48;;;13.63;;
75506;SDS011;64086;43.220;27.878;2023-03-23T12:02:56;17.70;;;13.75;;
75506;SDS011;64086;43.220;27.878;2023-03-23T12:10:42;15.40;;;12.65;;
75506;SDS011;64086;43.220;27.878;2023-03-23T12:19:10;17.50;;;12.43;;
75506;SDS011;64086;43.220;27.878;2023-03-23T12:43:02;14.95;;;10.98;;
75506;SDS011;64086;43.220;27.878;2023-03-23T12:46:03;16.23;;;10.95;;
75506;SDS011;64086;43.220;27.878;2023-03-23T12:48:51;16.08;;;11.43;;
75506;SDS011;64086;43.220;27.878;2023-03-23T12:51:27;15.13;;;11.10;;
75506;SDS011;64086;43.220;27.878;2023-03-23T12:59:27;15.38;;;11.63;;
75506;SDS011;64086;43.220;27.878;2023-03-23T13:02:19;17.05;;;11.50;;
75506;SDS011;64086;43.220;27.878;2023-03-23T13:04:57;19.40;;;11.68;;
75506;SDS011;64086;43.220;27.878;2023-03-23T13:07:28;17.83;;;10.88;;
75506;SDS011;64086;43.220;27.878;2023-03-23T13:12:50;18.55;;;12.00;;
75506;SDS011;64086;43.220;27.878;2023-03-23T13:17:54;16.55;;;11.63;;
75506;SDS011;64086;43.220;27.878;2023-03-23T13:28:28;23.38;;;13.07;;
75506;SDS011;64086;43.220;27.878;2023-03-23T13:33:25;15.93;;;12.93;;
75506;SDS011;64086;43.220;27.878;2023-03-23T13:35:54;19.67;;;14.48;;
75506;SDS011;64086;43.220;27.878;2023-03-23T13:38:21;14.88;;;11.50;;
75506;SDS011;64086;43.220;27.878;2023-03-23T13:40:49;18.63;;;12.50;;
75506;SDS011;64086;43.220;27.878;2023-03-23T13:43:24;15.45;;;11.02;;
75506;SDS011;64086;43.220;27.878;2023-03-23T13:45:54;14.10;;;10.93;;
75506;SDS011;64086;43.220;27.878;2023-03-23T13:48:23;12.75;;;11.23;;
75506;SDS011;64086;43.220;27.878;2023-03-23T13:50:54;17.38;;;12.00;;
75506;SDS011;64086;43.220;27.878;2023-03-23T13:53:28;14.00;;;10.50;;
75506;SDS011;64086;43.220;27.878;2023-03-23T14:05:25;12.82;;;10.65;;
75506;SDS011;64086;43.220;27.878;2023-03-23T14:10:31;16.10;;;11.25;;
75506;SDS011;64086;43.220;27.878;2023-03-23T14:12:57;18.27;;;11.90;;
75506;SDS011;64086;43.220;27.878;2023-03-23T14:15:27;17.17;;;11.50;;
75506;SDS011;64086;43.220;27.878;2023-03-23T14:17:53;15.88;;;11.90;;
75506;SDS011;64086;43.220;27.878;2023-03-23T14:20:26;17.27;;;12.52;;
75506;SDS011;64086;43.220;27.878;2023-03-23T14:22:55;18.05;;;12.57;;
75506;SDS011;64086;43.220;27.878;2023-03-23T14:25:21;15.15;;;11.77;;
75506;SDS011;64086;43.220;27.878;2023-03-23T14:27:50;21.00;;;12.52;;
75506;SDS011;64086;43.220;27.878;2023-03-23T14:30:24;16.60;;;13.07;;
75506;SDS011;64086;43.220;27.878;2023-03-23T14:32:51;18.45;;;12.65;;
75506;SDS011;64086;43.220;27.878;2023-03-23T14:37:48;18.58;;;11.88;;
75506;SDS011;64086;43.220;27.878;2023-03-23T14:40:16;19.92;;;13.40;;
75506;SDS011;64086;43.220;27.878;2023-03-23T14:42:42;18.98;;;12.30;;
75506;SDS011;64086;43.220;27.878;2023-03-23T14:45:11;17.45;;;12.90;;
75506;SDS011;64086;43.220;27.878;2023-03-23T14:47:43;19.70;;;13.00;;
75506;SDS011;64086;43.220;27.878;2023-03-23T14:50:56;16.67;;;11.93;;
75506;SDS011;64086;43.220;27.878;2023-03-23T14:55:59;18.08;;;10.70;;
75506;SDS011;64086;43.220;27.878;2023-03-23T14:58:30;15.23;;;10.43;;
75506;SDS011;64086;43.220;27.878;2023-03-23T15:03:24;18.48;;;11.38;;
75506;SDS011;64086;43.220;27.878;2023-03-23T15:05:54;15.70;;;10.07;;
75506;SDS011;64086;43.220;27.878;2023-03-23T15:08:28;16.98;;;10.85;;
75506;SDS011;64086;43.220;27.878;2023-03-23T15:11:05;16.13;;;11.00;;
75506;SDS011;64086;43.220;27.878;2023-03-23T15:13:32;17.30;;;11.40;;
75506;SDS011;64086;43.220;27.878;2023-03-23T15:16:06;16.55;;;11.57;;
75506;SDS011;64086;43.220;27.878;2023-03-23T15:18:37;19.23;;;10.93;;
75506;SDS011;64086;43.220;27.878;2023-03-23T15:21:11;15.00;;;11.23;;
75506;SDS011;64086;43.220;27.878;2023-03-23T15:23:50;21.90;;;12.48;;
75506;SDS011;64086;43.220;27.878;2023-03-23T15:26:22;17.60;;;12.82;;
75506;SDS011;64086;43.220;27.878;2023-03-23T15:28:48;21.38;;;12.32;;
75506;SDS011;64086;43.220;27.878;2023-03-23T15:31:13;20.85;;;13.35;;
75506;SDS011;64086;43.220;27.878;2023-03-23T15:33:39;17.13;;;11.93;;
75506;SDS011;64086;43.220;27.878;2023-03-23T15:36:13;15.38;;;12.50;;
75506;SDS011;64086;43.220;27.878;2023-03-23T15:38:42;17.52;;;11.35;;
75506;SDS011;64086;43.220;27.878;2023-03-23T15:41:19;13.60;;;10.75;;
75506;SDS011;64086;43.220;27.878;2023-03-23T15:49:16;15.43;;;11.10;;
75506;SDS011;64086;43.220;27.878;2023-03-23T15:51:35;16.05;;;11.32;;
75506;SDS011;64086;43.220;27.878;2023-03-23T15:54:02;13.88;;;11.75;;
75506;SDS011;64086;43.220;27.878;2023-03-23T15:56:28;19.35;;;12.20;;
75506;SDS011;64086;43.220;27.878;2023-03-23T15:58:54;20.63;;;12.80;;
75506;SDS011;64086;43.220;27.878;2023-03-23T16:01:25;18.55;;;12.40;;
75506;SDS011;64086;43.220;27.878;2023-03-23T16:06:26;19.75;;;14.15;;
75506;SDS011;64086;43.220;27.878;2023-03-23T16:08:53;19.48;;;14.82;;
75506;SDS011;64086;43.220;27.878;2023-03-23T16:11:19;21.80;;;15.48;;
75506;SDS011;64086;43.220;27.878;2023-03-23T16:13:45;23.70;;;15.65;;
75506;SDS011;64086;43.220;27.878;2023-03-23T16:16:14;26.50;;;17.08;;
75506;SDS011;64086;43.220;27.878;2023-03-23T16:18:41;24.88;;;16.45;;
75506;SDS011;64086;43.220;27.878;2023-03-23T16:21:07;23.38;;;17.30;;
75506;SDS011;64086;43.220;27.878;2023-03-23T16:23:32;28.13;;;18.23;;
75506;SDS011;64086;43.220;27.878;2023-03-23T16:25:58;28.02;;;17.77;;
75506;SDS011;64086;43.220;27.878;2023-03-23T16:28:23;25.30;;;17.15;;
75506;SDS011;64086;43.220;27.878;2023-03-23T16:30:49;21.80;;;16.35;;
75506;SDS011;64086;43.220;27.878;2023-03-23T16:33:14;27.77;;;18.70;;
75506;SDS011;64086;43.220;27.878;2023-03-23T16:35:40;25.88;;;17.40;;
75506;SDS011;64086;43.220;27.878;2023-03-23T16:38:06;30.48;;;19.20;;
75506;SDS011;64086;43.220;27.878;2023-03-23T16:40:32;22.63;;;16.08;;
75506;SDS011;64086;43.220;27.878;2023-03-23T16:42:57;26.95;;;17.75;;
75506;SDS011;64086;43.220;27.878;2023-03-23T16:45:23;30.73;;;20.27;;